Time;durP1;ratioP1;P1;durP2;ratioP2;P2;SDS_P1;SDS_P2;PMS_P1;PMS_P2;Temp;Humidity;BMP_temperature;BMP_pressure;BME280_temperature;BME280_humidity;BME280_pressure;Samples;Min_cycle;Max_cycle;Signal;HPM_P1;HPM_P2
2023/06/18 00:00:56;;;;;;;10.70;6.57;;;;;;;21.22;46.69;101243.13;5081193;28;20055;-68
2023/06/18 00:03:22;;;;;;;8.98;6.95;;;;;;;21.18;47.02;101239.81;5085625;28;20093;-68
2023/06/18 00:05:47;;;;;;;8.50;7.38;;;;;;;21.17;46.90;101246.09;5080753;28;20043;-68
2023/06/18 00:08:13;;;;;;;9.20;7.35;;;;;;;21.14;47.34;101237.47;5083730;28;20079;-68
2023/06/18 00:10:38;;;;;;;13.95;7.13;;;;;;;21.11;46.97;101243.81;5088218;28;20037;-68
2023/06/18 00:13:04;;;;;;;11.52;7.28;;;;;;;21.10;47.24;101238.63;5082228;28;20021;-68
2023/06/18 00:15:30;;;;;;;8.38;7.10;;;;;;;21.05;47.85;101242.38;5088999;28;20097;-67
2023/06/18 00:17:56;;;;;;;12.02;7.55;;;;;;;21.06;47.92;101240.59;5082673;28;20024;-68
2023/06/18 00:20:21;;;;;;;10.25;7.80;;;;;;;21.07;48.05;101241.44;5088867;28;20110;-68
2023/06/18 00:22:48;;;;;;;9.15;7.60;;;;;;;21.05;48.62;101228.28;5082458;28;20111;-68
2023/06/18 00:25:13;;;;;;;9.02;7.25;;;;;;;21.02;48.76;101223.16;5087967;28;20028;-68
2023/06/18 00:27:40;;;;;;;8.43;7.63;;;;;;;20.99;49.04;101220.69;5083277;28;20464;-68
2023/06/18 00:30:06;;;;;;;10.77;7.47;;;;;;;20.95;49.47;101220.03;5086277;28;20081;-68
2023/06/18 00:32:31;;;;;;;9.65;6.90;;;;;;;21.00;49.17;101225.91;5084354;28;20028;-68
2023/06/18 00:35:00;;;;;;;8.55;7.68;;;;;;;20.98;49.24;101227.78;5084714;28;20020;-68
2023/06/18 00:37:25;;;;;;;8.10;7.32;;;;;;;20.95;49.53;101212.09;5085248;28;20032;-68
2023/06/18 00:39:51;;;;;;;10.98;8.30;;;;;;;20.90;49.50;101215.97;5083450;28;20031;-68
2023/06/18 00:42:20;;;;;;;9.75;7.35;;;;;;;20.78;49.71;101197.22;5085728;28;20055;-68
2023/06/18 00:44:45;;;;;;;11.00;7.72;;;;;;;20.80;50.18;101211.22;5084108;28;20032;-68
2023/06/18 00:47:12;;;;;;;8.65;7.47;;;;;;;20.80;50.25;101213.88;5084949;28;20167;-68
2023/06/18 00:49:40;;;;;;;9.13;7.53;;;;;;;20.70;50.29;101196.84;5084882;28;20393;-68
2023/06/18 00:52:08;;;;;;;11.48;7.78;;;;;;;20.68;50.26;101201.38;5080120;28;20031;-68
2023/06/18 00:54:36;;;;;;;9.10;7.05;;;;;;;20.58;50.08;101202.88;5083355;28;20082;-68
2023/06/18 00:57:03;;;;;;;11.18;7.75;;;;;;;20.60;50.34;101206.28;5084106;28;20468;-68
2023/06/18 00:59:29;;;;;;;10.80;7.30;;;;;;;20.50;51.30;101211.25;5084890;28;20387;-68
2023/06/18 01:01:56;;;;;;;8.35;7.53;;;;;;;20.51;51.62;101206.81;5082270;28;20115;-68
2023/06/18 01:04:26;;;;;;;9.25;7.35;;;;;;;20.42;51.96;101196.75;5082785;28;20032;-68
2023/06/18 01:06:55;;;;;;;8.35;7.35;;;;;;;20.37;52.49;101197.00;5085017;28;20464;-68
2023/06/18 01:09:22;;;;;;;9.32;7.60;;;;;;;20.41;52.69;101201.19;5082028;28;20052;-68
2023/06/18 01:11:54;;;;;;;10.15;8.10;;;;;;;20.41;52.80;101201.19;5084981;28;20019;-68
2023/06/18 01:14:21;;;;;;;8.63;7.72;;;;;;;20.39;52.79;101204.88;5071313;28;20053;-68
2023/06/18 01:16:49;;;;;;;9.85;7.40;;;;;;;20.35;52.52;101214.78;5072057;28;20031;-68
2023/06/18 01:19:40;;;;;;;10.75;8.05;;;;;;;20.32;53.00;101209.66;5080700;28;20040;-68
2023/06/18 01:22:19;;;;;;;8.32;7.35;;;;;;;20.27;53.72;101199.34;5075697;28;20124;-68
2023/06/18 01:24:51;;;;;;;12.82;7.50;;;;;;;20.26;54.27;101207.38;5081622;28;20103;-68
2023/06/18 01:27:21;;;;;;;8.80;7.43;;;;;;;20.20;54.27;101197.13;5082391;28;20020;-68
2023/06/18 01:29:48;;;;;;;9.05;7.82;;;;;;;20.13;53.73;101201.09;5080421;28;20093;-68
2023/06/18 01:32:13;;;;;;;10.75;8.25;;;;;;;20.04;54.25;101199.81;5085334;28;20020;-68
2023/06/18 01:34:40;;;;;;;9.18;8.25;;;;;;;20.06;53.95;101201.44;5078153;28;20043;-68
2023/06/18 01:37:24;;;;;;;9.77;7.82;;;;;;;20.04;54.67;101199.81;5083281;28;20024;-68
2023/06/18 01:40:12;;;;;;;9.90;7.50;;;;;;;20.00;55.20;101199.13;5082313;28;20429;-68
2023/06/18 01:42:47;;;;;;;9.45;7.53;;;;;;;19.83;55.68;101167.50;5086432;28;20052;-68
2023/06/18 01:45:36;;;;;;;9.52;7.78;;;;;;;19.83;56.19;101175.44;5078557;28;20024;-68
2023/06/18 01:48:04;;;;;;;12.35;8.55;;;;;;;19.80;56.58;101183.56;5081066;28;20043;-68
2023/06/18 01:50:34;;;;;;;14.93;8.43;;;;;;;19.73;57.36;101183.03;5077133;28;20025;-68
2023/06/18 01:53:02;;;;;;;12.77;8.00;;;;;;;19.67;57.14;101177.25;5085341;28;20106;-68
2023/06/18 01:55:28;;;;;;;10.75;8.18;;;;;;;19.63;57.56;101184.47;5073968;28;20029;-68
2023/06/18 01:57:55;;;;;;;10.75;8.48;;;;;;;19.56;58.21;101186.59;5083828;28;20035;-68
2023/06/18 02:00:20;;;;;;;10.27;8.45;;;;;;;19.56;58.31;101193.69;5076195;28;20119;-68
2023/06/18 02:02:46;;;;;;;12.05;8.23;;;;;;;19.44;57.67;101186.44;5086316;28;20379;-68
2023/06/18 02:05:12;;;;;;;8.85;7.95;;;;;;;19.41;58.38;101176.88;5082056;28;20051;-68
2023/06/18 02:07:37;;;;;;;9.23;7.93;;;;;;;19.36;58.41;101174.50;5084398;28;20036;-68
2023/06/18 02:10:03;;;;;;;10.20;8.05;;;;;;;19.31;58.97;101176.53;5084417;28;20035;-68
2023/06/18 02:12:28;;;;;;;13.43;8.32;;;;;;;19.27;59.29;101174.97;5082255;28;20082;-68
2023/06/18 02:14:53;;;;;;;9.48;8.15;;;;;;;19.19;59.79;101163.97;5083825;28;20032;-68
2023/06/18 02:17:19;;;;;;;9.85;7.97;;;;;;;19.20;60.30;101170.97;5083221;28;20069;-68
2023/06/18 02:19:44;;;;;;;13.98;8.50;;;;;;;19.10;60.54;101165.34;5083161;28;20032;-68
2023/06/18 02:22:09;;;;;;;10.85;8.18;;;;;;;19.02;60.58;101156.09;5084132;28;20387;-68
2023/06/18 02:24:35;;;;;;;11.00;8.55;;;;;;;19.05;60.68;101164.72;5080548;28;20417;-68
2023/06/18 02:27:00;;;;;;;9.48;8.40;;;;;;;19.04;60.61;101172.75;5083191;28;20020;-68
2023/06/18 02:29:25;;;;;;;9.50;8.50;;;;;;;18.98;60.99;101176.56;5081908;28;20044;-68
2023/06/18 02:31:50;;;;;;;9.68;8.25;;;;;;;18.91;61.42;101173.38;5082876;28;20029;-68
2023/06/18 02:34:18;;;;;;;10.43;8.57;;;;;;;18.89;61.47;101159.38;5084076;28;20383;-67
2023/06/18 02:36:44;;;;;;;11.68;8.95;;;;;;;18.79;61.60;101160.81;5081529;28;20032;-68
2023/06/18 02:39:09;;;;;;;12.10;8.80;;;;;;;18.82;61.92;101168.56;5082784;28;20031;-67
2023/06/18 02:41:35;;;;;;;11.30;8.82;;;;;;;18.79;62.09;101159.97;5082578;28;20037;-68
2023/06/18 02:44:00;;;;;;;11.52;9.00;;;;;;;18.74;62.65;101152.31;5083357;28;20032;-68
2023/06/18 02:46:26;;;;;;;10.38;9.35;;;;;;;18.77;62.50;101162.72;5083702;28;20028;-68
2023/06/18 02:48:51;;;;;;;12.32;9.35;;;;;;;18.74;63.38;101159.34;5081471;28;20024;-68
2023/06/18 02:51:16;;;;;;;16.65;9.48;;;;;;;18.70;63.57;101159.50;5084658;28;20038;-68
2023/06/18 02:53:42;;;;;;;10.70;9.60;;;;;;;18.61;63.07;101159.97;5079696;28;20063;-68
2023/06/18 02:56:07;;;;;;;11.38;9.35;;;;;;;18.64;63.49;101161.59;5088028;28;20039;-68
2023/06/18 02:58:35;;;;;;;12.32;9.90;;;;;;;18.59;63.21;101158.34;5079981;28;20075;-68
2023/06/18 03:01:02;;;;;;;11.63;9.57;;;;;;;18.59;63.13;101158.34;5087033;28;20065;-68
2023/06/18 03:03:28;;;;;;;11.23;9.75;;;;;;;18.54;63.06;101160.34;5080081;28;20024;-68
2023/06/18 03:05:56;;;;;;;11.50;10.30;;;;;;;18.44;63.27;101158.22;5086927;28;20082;-68
2023/06/18 03:08:21;;;;;;;10.68;9.55;;;;;;;18.44;63.68;101166.13;5080729;28;20085;-68
2023/06/18 03:10:47;;;;;;;11.43;9.90;;;;;;;18.41;62.97;101166.28;5084958;28;20020;-68
2023/06/18 03:13:12;;;;;;;13.82;10.45;;;;;;;18.39;63.04;101164.66;5083211;28;20364;-68
2023/06/18 03:15:38;;;;;;;12.13;10.20;;;;;;;18.38;63.08;101171.72;5081850;28;20186;-68
2023/06/18 03:18:03;;;;;;;12.63;10.52;;;;;;;18.41;63.12;101170.69;5085998;28;20059;-68
2023/06/18 03:20:29;;;;;;;17.05;10.80;;;;;;;18.37;62.77;101169.13;5086464;28;20048;-68
2023/06/18 03:22:55;;;;;;;13.90;11.05;;;;;;;18.38;64.06;101158.53;5082327;28;20016;-68
2023/06/18 03:25:20;;;;;;;15.15;10.13;;;;;;;18.33;64.25;101164.97;5087834;28;20107;-68
2023/06/18 03:27:47;;;;;;;11.57;10.38;;;;;;;18.37;64.20;101164.72;5083611;28;20032;-68
2023/06/18 03:30:13;;;;;;;13.00;9.90;;;;;;;18.26;64.26;101169.69;5087327;28;20090;-68
2023/06/18 03:32:47;;;;;;;13.40;10.68;;;;;;;18.34;63.56;101167.50;5084949;28;20028;-68
2023/06/18 03:35:13;;;;;;;12.75;10.57;;;;;;;18.31;63.75;101162.41;5087121;28;20028;-68
2023/06/18 03:37:38;;;;;;;13.15;10.77;;;;;;;18.35;63.67;101163.09;5085823;28;20081;-68
2023/06/18 03:40:04;;;;;;;12.77;10.68;;;;;;;18.33;62.88;101160.53;5086011;28;20020;-68
2023/06/18 03:42:35;;;;;;;14.77;11.43;;;;;;;18.36;62.75;101164.81;5085952;28;20451;-68
2023/06/18 03:45:01;;;;;;;15.07;11.05;;;;;;;18.35;63.13;101161.31;5085188;28;20056;-68
2023/06/18 03:47:26;;;;;;;15.85;11.90;;;;;;;18.40;63.32;101161.91;5086666;28;20055;-68
2023/06/18 03:49:51;;;;;;;15.60;11.45;;;;;;;18.41;63.51;101171.56;5084546;28;20089;-68
2023/06/18 03:52:17;;;;;;;16.30;11.07;;;;;;;18.37;62.94;101167.34;5085582;28;20055;-68
2023/06/18 03:54:42;;;;;;;13.25;11.48;;;;;;;18.44;62.52;101171.41;5086301;28;20028;-68
2023/06/18 03:57:08;;;;;;;14.30;10.93;;;;;;;18.42;63.58;101170.63;5084594;28;20048;-68
2023/06/18 03:59:34;;;;;;;14.30;11.27;;;;;;;18.46;63.76;101174.81;5086267;28;20039;-68
2023/06/18 04:01:59;;;;;;;13.13;11.73;;;;;;;18.48;63.98;101180.03;5085762;28;20066;-67
2023/06/18 04:04:24;;;;;;;12.75;10.98;;;;;;;18.48;64.09;101180.88;5085381;28;20031;-68
2023/06/18 04:06:50;;;;;;;13.95;11.25;;;;;;;18.47;63.41;101184.44;5087758;28;20385;-68
2023/06/18 04:09:15;;;;;;;15.77;11.57;;;;;;;18.49;63.94;101181.72;5084587;28;20024;-68
2023/06/18 04:11:42;;;;;;;13.70;11.63;;;;;;;18.48;63.75;101180.88;5088522;28;20078;-68
2023/06/18 04:14:08;;;;;;;15.45;12.35;;;;;;;18.46;63.43;101187.16;5082644;28;20021;-68
2023/06/18 04:16:33;;;;;;;12.88;11.40;;;;;;;18.48;64.41;101180.88;5090581;28;20082;-67
2023/06/18 04:18:59;;;;;;;14.98;11.57;;;;;;;18.50;64.78;101180.78;5081982;28;20348;-67
2023/06/18 04:21:24;;;;;;;11.88;10.68;;;;;;;18.53;63.88;101183.25;5091127;28;20406;-68
2023/06/18 04:23:50;;;;;;;15.43;12.05;;;;;;;18.57;63.44;101178.69;5079516;28;20095;-68
2023/06/18 04:26:15;;;;;;;12.65;10.52;;;;;;;18.57;64.68;101178.69;5082754;28;20020;-68
2023/06/18 04:28:40;;;;;;;15.63;11.43;;;;;;;18.53;63.79;101182.41;5084199;28;20040;-68
2023/06/18 04:31:06;;;;;;;18.25;12.02;;;;;;;18.57;64.01;101176.03;5087352;28;20464;-67
2023/06/18 04:33:31;;;;;;;14.38;11.45;;;;;;;18.55;62.99;101175.28;5082057;28;20444;-67
2023/06/18 04:35:56;;;;;;;12.85;11.45;;;;;;;18.57;63.34;101173.41;5089674;28;20027;-68
2023/06/18 04:38:22;;;;;;;14.27;11.80;;;;;;;18.63;62.40;101178.38;5075201;28;20089;-68
2023/06/18 04:40:51;;;;;;;13.85;11.57;;;;;;;18.64;63.76;101172.16;5088702;28;20031;-67
2023/06/18 04:43:17;;;;;;;13.18;11.75;;;;;;;18.68;62.45;101179.00;5082390;28;20025;-67
2023/06/18 04:45:44;;;;;;;12.43;10.85;;;;;;;18.66;63.62;101173.78;5088778;28;20028;-68
2023/06/18 04:48:10;;;;;;;14.25;12.20;;;;;;;18.70;62.86;101182.38;5082275;28;20029;-67
2023/06/18 04:50:35;;;;;;;15.50;12.60;;;;;;;18.70;62.88;101169.19;5086932;28;20024;-68
2023/06/18 04:53:00;;;;;;;16.08;12.73;;;;;;;18.78;62.25;101176.75;5084233;28;20036;-68
2023/06/18 04:55:27;;;;;;;13.50;12.10;;;;;;;18.80;63.26;101175.75;5085729;28;20035;-68
2023/06/18 04:57:52;;;;;;;14.13;12.63;;;;;;;18.80;61.27;101181.03;5085452;28;20031;-68
2023/06/18 05:00:19;;;;;;;14.23;12.55;;;;;;;18.85;62.02;101180.78;5083837;28;20032;-68
2023/06/18 05:02:45;;;;;;;17.10;12.80;;;;;;;18.95;61.67;101188.13;5085043;28;20031;-68
2023/06/18 05:05:10;;;;;;;14.60;11.82;;;;;;;19.01;62.41;101183.47;5084255;28;20079;-68
2023/06/18 05:07:35;;;;;;;14.85;12.15;;;;;;;18.99;63.02;101174.75;5083828;28;20036;-68
2023/06/18 05:10:01;;;;;;;14.80;12.32;;;;;;;19.06;62.43;101189.34;5085181;28;20024;-68
2023/06/18 05:12:26;;;;;;;16.15;12.88;;;;;;;19.11;61.89;101185.53;5084075;28;20112;-68
2023/06/18 05:14:51;;;;;;;13.75;12.32;;;;;;;19.19;61.16;101182.47;5084309;28;20038;-68
2023/06/18 05:17:17;;;;;;;13.40;12.00;;;;;;;19.31;59.96;101181.81;5084706;28;20024;-67
2023/06/18 05:19:42;;;;;;;14.15;12.02;;;;;;;19.45;61.67;101190.75;5084530;28;20024;-68
2023/06/18 05:22:07;;;;;;;14.35;12.35;;;;;;;19.58;59.02;101183.84;5085386;28;20020;-68
2023/06/18 05:24:33;;;;;;;14.40;12.70;;;;;;;19.72;60.23;101189.28;5082295;28;20051;-68
2023/06/18 05:26:58;;;;;;;15.05;12.00;;;;;;;19.88;57.77;101186.59;5084825;28;20039;-67
2023/06/18 05:29:23;;;;;;;13.82;12.32;;;;;;;20.03;55.93;101190.16;5082396;28;20044;-68
2023/06/18 05:31:48;;;;;;;15.80;13.35;;;;;;;20.17;54.16;101192.00;5084043;28;20039;-68
2023/06/18 05:34:14;;;;;;;12.88;11.57;;;;;;;20.26;56.11;101181.75;5084785;28;20028;-68
2023/06/18 05:36:39;;;;;;;14.38;12.95;;;;;;;20.31;53.39;101176.19;5081832;28;20028;-68
2023/06/18 05:39:07;;;;;;;14.50;12.85;;;;;;;20.46;52.79;101182.38;5083972;28;20051;-68
2023/06/18 05:41:32;;;;;;;13.75;11.70;;;;;;;20.63;52.32;101190.19;5083399;28;20032;-67
2023/06/18 05:43:58;;;;;;;16.52;12.38;;;;;;;20.73;51.82;101193.13;5082860;28;20033;-68
2023/06/18 05:46:23;;;;;;;18.60;12.32;;;;;;;20.83;51.61;101186.34;5085881;28;20081;-68
2023/06/18 05:48:48;;;;;;;15.60;11.60;;;;;;;21.01;53.70;101189.66;5081031;28;20430;-68
2023/06/18 05:51:13;;;;;;;12.82;11.40;;;;;;;21.10;50.20;101190.91;5088503;28;20388;-68
2023/06/18 05:53:39;;;;;;;15.27;11.23;;;;;;;21.17;51.26;101198.38;5081447;28;20028;-68
2023/06/18 05:56:04;;;;;;;12.23;10.90;;;;;;;21.27;50.70;101196.00;5088082;28;20057;-68
2023/06/18 05:58:29;;;;;;;13.30;10.93;;;;;;;21.38;50.56;101193.53;5080672;28;20048;-68
2023/06/18 06:00:55;;;;;;;13.07;10.88;;;;;;;21.49;49.06;101198.19;5088267;28;20041;-68
2023/06/18 06:03:20;;;;;;;12.00;10.88;;;;;;;21.62;48.60;101196.44;5080237;28;20047;-68
2023/06/18 06:05:46;;;;;;;11.30;10.10;;;;;;;21.82;48.51;101197.81;5086423;28;20039;-68
2023/06/18 06:08:11;;;;;;;13.77;10.88;;;;;;;22.03;47.81;101189.38;5082999;28;20502;-68
2023/06/18 06:10:36;;;;;;;11.43;9.25;;;;;;;22.24;48.11;101192.47;5083500;28;20040;-68
2023/06/18 06:13:03;;;;;;;11.75;9.38;;;;;;;22.31;47.99;101188.44;5084289;28;20051;-68
2023/06/18 06:15:31;;;;;;;14.43;9.23;;;;;;;22.53;45.43;101188.69;5083490;28;20035;-68
2023/06/18 06:17:56;;;;;;;12.38;8.77;;;;;;;22.78;44.13;101197.63;5083360;28;20028;-68
2023/06/18 06:20:22;;;;;;;8.55;7.72;;;;;;;22.95;41.37;101199.97;5083998;28;20107;-68
2023/06/18 06:22:48;;;;;;;11.70;7.40;;;;;;;23.02;44.35;101201.28;5078049;28;20381;-68
2023/06/18 06:25:13;;;;;;;9.45;7.07;;;;;;;22.96;42.32;101207.03;5081362;28;20035;-68
2023/06/18 06:27:39;;;;;;;11.10;7.25;;;;;;;22.89;41.61;101209.22;5081238;28;20471;-68
2023/06/18 06:30:06;;;;;;;9.52;6.63;;;;;;;22.65;43.48;101222.38;5084516;28;20539;-68
2023/06/18 06:32:33;;;;;;;8.13;6.63;;;;;;;22.39;45.14;101240.06;5082160;28;20028;-68
2023/06/18 06:34:59;;;;;;;7.20;6.47;;;;;;;22.19;45.85;101253.84;5083414;28;20096;-68
2023/06/18 06:37:26;;;;;;;9.90;6.50;;;;;;;21.93;46.45;101259.00;5083787;28;20539;-68
2023/06/18 06:39:51;;;;;;;7.63;6.25;;;;;;;21.79;47.20;101256.38;5081372;28;20029;-68
2023/06/18 06:42:17;;;;;;;9.65;6.63;;;;;;;21.71;46.58;101256.88;5083897;28;20146;-70
2023/06/18 06:44:42;;;;;;;11.25;6.15;;;;;;;21.69;47.07;101261.44;5082011;28;20463;-70
2023/06/18 06:47:07;;;;;;;10.98;6.90;;;;;;;21.71;46.27;101264.84;5083081;28;20028;-70
2023/06/18 06:49:33;;;;;;;14.02;7.63;;;;;;;21.69;46.62;101258.78;5083525;28;20036;-70
2023/06/18 06:51:58;;;;;;;10.40;7.45;;;;;;;21.75;46.28;101260.19;5086281;28;20541;-70
2023/06/18 06:54:23;;;;;;;12.57;7.95;;;;;;;21.78;46.27;101259.13;5086658;28;20028;-70
2023/06/18 06:56:49;;;;;;;9.43;7.18;;;;;;;21.90;47.58;101261.00;5087351;28;20020;-70
2023/06/18 06:59:14;;;;;;;10.20;8.30;;;;;;;22.10;46.23;101255.25;5086537;28;20455;-70
2023/06/18 07:01:40;;;;;;;11.63;7.72;;;;;;;22.31;46.52;101257.50;5094473;28;20383;-70
2023/06/18 07:04:05;;;;;;;9.90;8.27;;;;;;;22.53;47.44;101262.22;5085185;28;20357;-70
2023/06/18 07:06:31;;;;;;;11.65;8.57;;;;;;;22.74;45.99;101262.59;5090317;28;20032;-70
2023/06/18 07:08:57;;;;;;;9.32;7.50;;;;;;;22.86;47.91;101259.94;5083897;28;20016;-70
2023/06/18 07:11:23;;;;;;;11.82;9.75;;;;;;;22.91;45.44;101256.97;5092238;28;20027;-70
2023/06/18 07:13:48;;;;;;;9.57;8.57;;;;;;;22.86;45.05;101259.09;5083309;28;20029;-70
2023/06/18 07:16:14;;;;;;;12.55;8.25;;;;;;;22.94;46.14;101259.44;5084510;28;20055;-70
2023/06/18 07:18:39;;;;;;;13.18;8.75;;;;;;;23.03;46.27;101268.59;5088728;28;20039;-70
2023/06/18 07:21:04;;;;;;;11.35;8.82;;;;;;;23.01;46.57;101255.41;5083365;28;20024;-70
2023/06/18 07:23:29;;;;;;;11.13;9.68;;;;;;;22.96;45.13;101270.84;5076789;28;20408;-70
2023/06/18 07:25:55;;;;;;;9.85;8.40;;;;;;;23.01;46.73;101255.41;5089222;28;20033;-70
2023/06/18 07:28:20;;;;;;;11.60;8.60;;;;;;;22.99;47.45;101251.13;5083188;28;20483;-70
2023/06/18 07:30:45;;;;;;;12.77;8.68;;;;;;;23.06;46.80;101261.25;5090727;28;20021;-70
2023/06/18 07:33:11;;;;;;;20.08;9.15;;;;;;;23.09;47.22;101252.22;5083475;28;20081;-70
2023/06/18 07:35:36;;;;;;;13.48;9.05;;;;;;;23.22;47.95;101260.19;5090193;28;20028;-70
2023/06/18 07:38:01;;;;;;;10.75;8.10;;;;;;;23.30;48.52;101255.19;5083561;28;20028;-70
2023/06/18 07:40:28;;;;;;;16.77;9.82;;;;;;;23.39;45.71;101245.72;5089968;28;20384;-70
2023/06/18 07:42:53;;;;;;;12.18;8.43;;;;;;;23.48;48.30;101253.88;5083807;28;20085;-70
2023/06/18 07:45:18;;;;;;;17.75;9.23;;;;;;;23.54;45.37;101240.16;5088302;28;20044;-68
2023/06/18 07:47:44;;;;;;;13.77;9.43;;;;;;;23.69;46.03;101248.84;5086194;28;20036;-68
2023/06/18 07:50:09;;;;;;;17.63;9.18;;;;;;;23.74;46.18;101251.16;5085720;28;20024;-69
2023/06/18 07:52:35;;;;;;;12.38;8.88;;;;;;;23.80;46.35;101256.91;5090075;28;20102;-68
2023/06/18 07:55:00;;;;;;;12.82;8.55;;;;;;;23.89;46.26;101250.06;5085914;28;20060;-69
2023/06/18 07:57:25;;;;;;;14.32;8.65;;;;;;;24.12;47.54;101252.84;5085680;28;20030;-68
2023/06/18 07:59:51;;;;;;;12.65;7.95;;;;;;;24.31;47.23;101239.88;5086278;28;20472;-69
2023/06/18 08:02:16;;;;;;;13.35;8.48;;;;;;;24.35;46.34;101241.31;5085463;28;20089;-68
2023/06/18 08:04:41;;;;;;;12.25;8.20;;;;;;;24.41;45.61;101243.56;5085682;28;20385;-68
2023/06/18 08:07:06;;;;;;;12.48;8.52;;;;;;;24.40;46.44;101244.50;5085799;28;20534;-68
2023/06/18 08:09:33;;;;;;;9.82;8.35;;;;;;;24.56;46.71;101246.91;5085462;28;20027;-68
2023/06/18 08:11:59;;;;;;;10.55;8.18;;;;;;;24.68;46.68;101231.75;5086859;28;20107;-68
2023/06/18 08:14:24;;;;;;;9.55;8.48;;;;;;;25.00;44.03;101240.78;5084921;28;20048;-68
2023/06/18 08:16:50;;;;;;;9.65;7.75;;;;;;;25.22;44.95;101247.16;5085386;28;20075;-68
2023/06/18 08:19:15;;;;;;;10.98;8.80;;;;;;;25.26;43.96;101240.59;5082884;28;20020;-68
2023/06/18 08:21:40;;;;;;;9.23;8.32;;;;;;;25.32;44.38;101242.78;5085916;28;20035;-68
2023/06/18 08:24:06;;;;;;;11.48;8.23;;;;;;;25.44;43.97;101230.25;5077174;28;20471;-68
2023/06/18 08:26:31;;;;;;;11.00;7.80;;;;;;;25.58;46.05;101224.69;5083988;28;20533;-68
2023/06/18 08:28:56;;;;;;;10.68;8.63;;;;;;;25.56;44.27;101229.28;5085550;28;20045;-68
2023/06/18 08:31:22;;;;;;;9.15;8.30;;;;;;;25.46;42.94;101226.50;5084614;28;20036;-68
2023/06/18 08:33:48;;;;;;;8.98;8.18;;;;;;;25.36;44.31;101233.56;5085166;28;20024;-68
2023/06/18 08:36:13;;;;;;;10.98;8.10;;;;;;;25.32;45.26;101226.78;5086944;28;20025;-68
2023/06/18 08:38:45;;;;;;;10.40;8.10;;;;;;;25.13;45.97;101223.88;5082148;28;20499;-68
2023/06/18 08:41:11;;;;;;;9.68;8.13;;;;;;;24.98;45.92;101228.53;5088356;28;20025;-68
2023/06/18 08:43:38;;;;;;;12.02;8.07;;;;;;;24.78;43.95;101227.41;5082186;28;20020;-68
2023/06/18 08:46:09;;;;;;;8.25;7.45;;;;;;;24.68;47.76;101224.63;5074127;28;20024;-68
2023/06/18 08:48:40;;;;;;;8.52;7.60;;;;;;;24.61;46.53;101234.06;5082016;28;20020;-68
2023/06/18 08:51:09;;;;;;;11.15;7.60;;;;;;;24.50;47.29;101226.03;5087212;28;20051;-68
2023/06/18 08:53:51;;;;;;;11.63;7.80;;;;;;;24.43;47.71;101228.31;5079602;28;20024;-68
2023/06/18 08:56:21;;;;;;;11.60;8.23;;;;;;;24.28;46.70;101224.94;5074808;28;20028;-68
2023/06/18 08:58:50;;;;;;;10.00;8.50;;;;;;;24.20;48.02;101227.34;5081281;28;20042;-68
2023/06/18 09:01:16;;;;;;;9.18;8.23;;;;;;;24.22;48.59;101229.88;5090154;28;20032;-68
2023/06/18 09:03:42;;;;;;;10.57;8.25;;;;;;;24.13;49.56;101219.91;5081453;28;20471;-68
2023/06/18 09:06:08;;;;;;;8.95;8.15;;;;;;;24.18;48.71;101226.59;5089786;28;20021;-68
2023/06/18 09:08:36;;;;;;;10.57;8.43;;;;;;;24.37;48.33;101235.91;5081725;28;20063;-68
2023/06/18 09:11:02;;;;;;;13.63;8.73;;;;;;;24.44;48.43;101239.81;5081866;28;20063;-68
2023/06/18 09:13:27;;;;;;;8.85;7.97;;;;;;;24.60;47.72;101237.69;5086453;28;20111;-68
2023/06/18 09:15:53;;;;;;;9.77;8.77;;;;;;;24.61;49.28;101234.06;5075410;28;20024;-68
2023/06/18 09:18:21;;;;;;;12.68;8.90;;;;;;;24.68;50.10;101237.09;5087510;28;20042;-68
2023/06/18 09:20:47;;;;;;;9.60;8.70;;;;;;;24.77;51.39;101233.72;5080827;28;20044;-68
2023/06/18 09:23:13;;;;;;;11.80;9.40;;;;;;;24.84;48.26;101237.63;5074281;28;20088;-68
2023/06/18 09:25:38;;;;;;;10.52;8.82;;;;;;;24.86;49.20;101234.84;5088379;28;20421;-70
2023/06/18 09:28:04;;;;;;;19.08;10.30;;;;;;;24.83;46.84;101229.75;5080406;28;20464;-70
2023/06/18 09:30:29;;;;;;;13.05;10.18;;;;;;;24.71;50.79;101242.19;5081048;28;20028;-70
2023/06/18 09:32:59;;;;;;;12.25;9.40;;;;;;;24.67;49.21;101235.41;5085326;28;20025;-70
2023/06/18 09:35:25;;;;;;;12.43;8.75;;;;;;;24.53;49.72;101234.66;5087515;28;20046;-68
2023/06/18 09:37:50;;;;;;;12.98;9.40;;;;;;;24.35;49.77;101241.31;5081557;28;20044;-68
2023/06/18 09:40:21;;;;;;;10.48;9.38;;;;;;;24.30;51.67;101238.19;5086399;28;20111;-68
2023/06/18 09:42:51;;;;;;;12.82;9.43;;;;;;;24.03;53.64;101249.03;5081944;28;20028;-68
2023/06/18 09:45:17;;;;;;;10.55;9.55;;;;;;;23.64;55.80;101239.47;5079381;28;20024;-68
2023/06/18 09:47:45;;;;;;;10.45;9.35;;;;;;;23.31;59.95;101244.41;5084029;28;20028;-68
2023/06/18 09:50:11;;;;;;;12.25;9.85;;;;;;;22.83;63.31;101251.34;5083518;28;20467;-68
2023/06/18 09:52:42;;;;;;;11.68;10.05;;;;;;;22.09;66.39;101245.59;5078738;28;20047;-68
2023/06/18 09:55:25;;;;;;;15.30;10.00;;;;;;;21.42;72.25;101247.25;5082838;28;20103;-68
2023/06/18 09:57:50;;;;;;;12.75;11.40;;;;;;;20.96;83.54;101239.44;5084322;28;20039;-68
2023/06/18 10:00:16;;;;;;;12.73;11.45;;;;;;;20.75;87.94;101241.59;5083836;28;20020;-68
2023/06/18 10:02:41;;;;;;;12.88;11.52;;;;;;;20.61;91.43;101234.47;5083123;28;20415;-68
2023/06/18 10:05:07;;;;;;;11.73;10.63;;;;;;;20.58;93.68;101240.78;5083769;28;20032;-68
2023/06/18 10:07:33;;;;;;;13.40;11.63;;;;;;;20.56;94.16;101233.88;5083818;28;20030;-68
2023/06/18 10:09:58;;;;;;;12.23;10.75;;;;;;;20.51;94.86;101235.97;5083547;28;20028;-68
2023/06/18 10:12:27;;;;;;;15.98;11.50;;;;;;;20.41;95.01;101214.44;5083647;28;20044;-68
2023/06/18 10:14:55;;;;;;;10.77;9.77;;;;;;;20.67;91.25;101218.22;5084379;28;20028;-68
2023/06/18 10:17:34;;;;;;;10.90;9.90;;;;;;;20.98;87.92;101214.53;5080491;28;20082;-68
2023/06/18 10:20:03;;;;;;;10.65;9.57;;;;;;;21.36;86.67;101215.81;5084184;28;20028;-68
2023/06/18 10:22:34;;;;;;;11.32;10.07;;;;;;;21.60;85.85;101198.34;5079988;28;20465;-68
2023/06/18 10:25:06;;;;;;;10.90;9.55;;;;;;;21.96;82.82;101204.88;5078839;28;20066;-68
2023/06/18 10:27:34;;;;;;;11.25;10.05;;;;;;;22.20;81.30;101200.63;5081826;28;20119;-68
2023/06/18 10:30:00;;;;;;;11.35;9.75;;;;;;;22.47;77.73;101193.56;5063230;28;20468;-68
2023/06/18 10:32:28;;;;;;;10.90;9.80;;;;;;;22.76;74.47;101192.44;5082672;28;20020;-68
2023/06/18 10:34:57;;;;;;;13.05;9.90;;;;;;;22.99;72.45;101198.84;5081559;28;20107;-68
2023/06/18 10:37:25;;;;;;;10.50;9.40;;;;;;;23.22;73.38;101202.53;5082774;28;20028;-68
2023/06/18 10:39:51;;;;;;;13.95;9.55;;;;;;;23.41;65.46;101196.72;5082999;28;20112;-68
2023/06/18 10:42:18;;;;;;;10.23;8.68;;;;;;;23.81;69.14;101201.88;5084040;28;20020;-68
2023/06/18 10:44:47;;;;;;;9.82;8.93;;;;;;;23.96;69.28;101190.06;5081977;28;20028;-68
2023/06/18 10:47:19;;;;;;;10.80;8.82;;;;;;;24.10;63.81;101180.19;5083568;28;20536;-68
2023/06/18 10:50:00;;;;;;;10.10;8.98;;;;;;;24.47;62.30;101187.13;5082565;28;20028;-68
2023/06/18 10:52:26;;;;;;;9.38;8.48;;;;;;;24.81;57.95;101184.53;5078280;28;20027;-68
2023/06/18 10:54:57;;;;;;;9.07;8.25;;;;;;;25.20;61.74;101171.72;5083136;28;20043;-68
2023/06/18 10:57:27;;;;;;;9.52;8.57;;;;;;;25.54;59.53;101183.19;5083424;28;20074;-68
2023/06/18 10:59:52;;;;;;;11.77;9.50;;;;;;;25.55;60.77;101178.72;5082732;28;20077;-68
2023/06/18 11:02:36;;;;;;;9.90;8.90;;;;;;;25.37;57.81;101171.19;5083414;28;20027;-68
2023/06/18 11:05:02;;;;;;;11.30;8.85;;;;;;;25.31;58.05;101179.72;5083480;28;20151;-68
2023/06/18 11:07:28;;;;;;;10.00;8.98;;;;;;;25.29;59.03;101172.81;5082747;28;20024;-68
2023/06/18 11:09:58;;;;;;;9.85;8.85;;;;;;;25.17;58.07;101171.94;5083671;28;20043;-68
2023/06/18 11:12:25;;;;;;;9.20;8.38;;;;;;;25.33;56.88;101168.91;5073769;28;20078;-68
2023/06/18 11:15:17;;;;;;;9.73;8.48;;;;;;;25.52;57.86;101166.44;5083395;28;20040;-68